createdAt,value
2019-03-24T00:02:41.572Z,88.02
2019-03-24T00:05:47.549Z,87.85
2019-03-24T00:08:53.212Z,88.33
2019-03-24T00:11:59.071Z,88.86
2019-03-24T00:15:05.314Z,89.16
2019-03-24T00:18:10.991Z,89.76
2019-03-24T00:21:16.845Z,90.14
2019-03-24T00:24:22.544Z,90.56
2019-03-24T00:27:28.404Z,90.26
2019-03-24T00:30:34.094Z,90.46
2019-03-24T00:33:39.733Z,90.69
2019-03-24T00:36:45.381Z,90.96
2019-03-24T00:39:50.992Z,90.70
2019-03-24T00:42:56.665Z,91.22
2019-03-24T00:46:02.316Z,91.18
2019-03-24T00:49:08.017Z,91.45
2019-03-24T00:52:13.751Z,91.58
2019-03-24T00:55:19.489Z,91.54
2019-03-24T00:58:25.235Z,91.79
2019-03-24T01:01:30.896Z,92.38
2019-03-24T01:04:36.694Z,91.86
2019-03-24T01:07:42.452Z,92.29
2019-03-24T01:10:48.125Z,92.49
2019-03-24T01:13:53.819Z,92.73
2019-03-24T01:16:59.456Z,92.69
2019-03-24T01:20:05.553Z,93.29
2019-03-24T01:23:11.212Z,93.51
2019-03-24T01:26:16.932Z,93.45
2019-03-24T01:29:22.572Z,93.88
2019-03-24T01:32:28.244Z,94.18
2019-03-24T01:35:33.953Z,94.16
2019-03-24T01:38:39.679Z,94.46
2019-03-24T01:41:45.366Z,94.76
2019-03-24T01:44:51.082Z,95.03
2019-03-24T01:47:56.770Z,94.27
2019-03-24T01:51:02.453Z,94.12
2019-03-24T01:54:08.084Z,94.59
2019-03-24T01:57:13.814Z,94.62
2019-03-24T02:00:19.491Z,94.94
2019-03-24T02:03:25.143Z,95.22
2019-03-24T02:06:30.838Z,95.58
2019-03-24T02:09:36.511Z,95.90
2019-03-24T02:12:42.183Z,95.73
2019-03-24T02:15:47.888Z,94.94
2019-03-24T02:18:53.557Z,95.04
2019-03-24T02:21:59.242Z,94.98
2019-03-24T02:25:05.407Z,95.27
2019-03-24T02:28:11.106Z,95.19
2019-03-24T02:31:17.854Z,95.64
2019-03-24T02:34:23.739Z,96.14
2019-03-24T02:37:29.402Z,96.64
2019-03-24T02:40:35.116Z,96.28
2019-03-24T02:43:40.874Z,96.31
2019-03-24T02:46:46.615Z,96.60
2019-03-24T02:49:52.339Z,97.15
2019-03-24T02:52:58.082Z,96.47
2019-03-24T02:56:03.803Z,97.02
2019-03-24T02:59:09.516Z,97.18
2019-03-24T03:02:15.184Z,97.62
2019-03-24T03:05:20.909Z,98.16
2019-03-24T03:08:26.541Z,98.34
2019-03-24T03:11:32.272Z,98.60
2019-03-24T03:14:37.891Z,98.51
2019-03-24T03:17:43.631Z,98.42
2019-03-24T03:20:49.358Z,98.63
2019-03-24T03:23:55.042Z,98.14
2019-03-24T03:27:00.745Z,97.12
2019-03-24T03:30:07.576Z,97.06
2019-03-24T03:33:13.244Z,97.59
2019-03-24T03:36:18.944Z,97.71
2019-03-24T03:39:24.578Z,97.69
2019-03-24T03:42:30.531Z,97.84
2019-03-24T03:45:39.137Z,97.66
2019-03-24T03:48:43.527Z,97.76
2019-03-24T03:51:49.140Z,97.57
2019-03-24T03:54:54.853Z,97.06
2019-03-24T03:58:00.498Z,96.73
2019-03-24T04:01:06.201Z,97.21
2019-03-24T04:04:11.813Z,97.33
2019-03-24T04:07:17.583Z,97.09
2019-03-24T04:10:24.425Z,96.99
2019-03-24T04:13:30.137Z,97.14
2019-03-24T04:16:35.793Z,97.32
2019-03-24T04:19:41.470Z,97.92
2019-03-24T04:22:47.107Z,98.14
2019-03-24T04:25:52.773Z,98.44
2019-03-24T04:28:58.490Z,98.47
2019-03-24T04:32:04.136Z,98.87
2019-03-24T04:35:10.206Z,98.53
2019-03-24T04:38:15.906Z,98.46
2019-03-24T04:41:21.583Z,98.08
2019-03-24T04:44:27.283Z,98.10
2019-03-24T04:47:32.950Z,98.22
2019-03-24T04:50:38.654Z,98.67
2019-03-24T04:53:44.327Z,99.36
2019-03-24T04:56:50.011Z,99.93
2019-03-24T04:59:55.750Z,99.73
2019-03-24T05:03:01.430Z,99.60
2019-03-24T05:06:07.670Z,99.84
2019-03-24T05:09:13.380Z,99.70
2019-03-24T05:12:19.007Z,99.77
2019-03-24T05:15:24.767Z,99.65
2019-03-24T05:18:30.480Z,99.65
2019-03-24T05:21:36.191Z,99.89
2019-03-24T05:24:41.830Z,100.00
2019-03-24T05:27:47.526Z,100.00
2019-03-24T05:30:53.272Z,100.00
2019-03-24T05:33:58.983Z,100.00
2019-03-24T05:37:04.707Z,100.00
2019-03-24T05:40:10.559Z,99.92
2019-03-24T05:43:16.274Z,100.00
2019-03-24T05:46:21.947Z,100.00
2019-03-24T05:49:27.673Z,99.86
2019-03-24T05:52:33.382Z,99.81
2019-03-24T05:55:39.227Z,98.98
2019-03-24T05:58:44.926Z,98.42
2019-03-24T06:01:51.658Z,97.86
2019-03-24T06:04:57.375Z,97.62
2019-03-24T06:08:03.092Z,97.15
2019-03-24T06:11:08.871Z,96.45
2019-03-24T06:14:14.591Z,95.79
2019-03-24T06:17:20.277Z,94.04
2019-03-24T06:20:25.980Z,93.50
2019-03-24T06:23:31.709Z,92.93
2019-03-24T06:26:37.364Z,92.68
2019-03-24T06:29:43.027Z,91.95
2019-03-24T06:32:48.691Z,91.58
2019-03-24T06:35:54.431Z,90.75
2019-03-24T06:39:00.231Z,88.04
2019-03-24T06:42:05.901Z,86.38
2019-03-24T06:45:11.623Z,86.46
2019-03-24T06:48:17.455Z,85.68
2019-03-24T06:51:23.175Z,86.20
2019-03-24T06:54:28.923Z,85.26
2019-03-24T06:57:34.616Z,84.85
2019-03-24T07:00:40.251Z,84.31
2019-03-24T07:03:45.945Z,83.31
2019-03-24T07:06:51.628Z,83.33
2019-03-24T07:09:57.458Z,83.26
2019-03-24T07:13:03.175Z,82.03
2019-03-24T07:16:08.889Z,81.84
2019-03-24T07:19:14.715Z,80.06
2019-03-24T07:22:22.294Z,79.25
2019-03-24T07:25:27.939Z,80.07
2019-03-24T07:28:33.650Z,79.71
2019-03-24T07:31:39.358Z,80.24
2019-03-24T07:34:45.054Z,79.96
2019-03-24T07:37:50.759Z,79.60
2019-03-24T07:40:56.415Z,76.53
2019-03-24T07:44:02.113Z,76.25
2019-03-24T07:47:13.442Z,75.34
2019-03-24T07:50:19.133Z,76.03
2019-03-24T07:53:24.921Z,74.37
2019-03-24T07:56:30.722Z,72.97
2019-03-24T07:59:36.406Z,72.27
2019-03-24T08:02:51.478Z,71.82
2019-03-24T08:05:57.185Z,72.45
2019-03-24T08:09:04.373Z,71.56
2019-03-24T08:12:10.090Z,70.96
2019-03-24T08:15:15.828Z,68.74
2019-03-24T08:18:29.488Z,67.85
2019-03-24T08:21:29.005Z,67.69
2019-03-24T08:24:34.779Z,69.18
2019-03-24T08:27:40.558Z,69.17
2019-03-24T08:30:46.264Z,69.82
2019-03-24T08:33:51.887Z,71.02
2019-03-24T08:36:57.570Z,72.32
2019-03-24T08:40:03.302Z,71.95
2019-03-24T08:43:09.048Z,71.19
2019-03-24T08:46:16.387Z,69.41
2019-03-24T08:49:22.651Z,67.67
2019-03-24T08:52:28.912Z,68.01
2019-03-24T08:55:34.633Z,67.74
2019-03-24T08:58:40.324Z,67.57
2019-03-24T09:01:46.042Z,70.23
2019-03-24T09:04:51.802Z,70.70
2019-03-24T09:07:57.521Z,70.72
2019-03-24T09:11:03.195Z,70.31
2019-03-24T09:14:08.986Z,68.80
2019-03-24T09:17:14.670Z,68.32
2019-03-24T09:20:20.328Z,66.12
2019-03-24T09:23:26.016Z,64.56
2019-03-24T09:26:31.803Z,66.89
2019-03-24T09:29:37.540Z,65.47
2019-03-24T09:32:43.275Z,65.51
2019-03-24T09:35:48.954Z,63.88
2019-03-24T09:38:54.672Z,63.36
2019-03-24T09:42:00.377Z,64.64
2019-03-24T09:45:06.366Z,64.24
2019-03-24T09:48:12.067Z,63.60
2019-03-24T09:51:17.750Z,63.41
2019-03-24T09:54:23.432Z,61.99
2019-03-24T09:57:29.154Z,62.45
2019-03-24T10:00:34.805Z,64.81
2019-03-24T10:03:40.598Z,63.53
2019-03-24T10:06:46.266Z,64.37
2019-03-24T10:09:51.986Z,63.06
2019-03-24T10:12:57.649Z,62.64
2019-03-24T10:16:03.370Z,63.05
2019-03-24T10:19:13.853Z,62.66
2019-03-24T10:22:16.491Z,61.53
2019-03-24T10:25:22.265Z,61.50
2019-03-24T10:28:28.037Z,62.68
2019-03-24T10:31:33.736Z,62.16
2019-03-24T10:34:39.774Z,60.55
2019-03-24T10:37:45.447Z,61.38
2019-03-24T10:40:51.164Z,60.46
2019-03-24T10:43:56.915Z,59.86
2019-03-24T10:47:02.718Z,60.53
2019-03-24T10:50:10.675Z,59.91
2019-03-24T10:53:16.347Z,58.52
2019-03-24T10:56:22.563Z,57.87
2019-03-24T10:59:28.396Z,57.76
2019-03-24T11:02:34.116Z,58.03
2019-03-24T11:05:41.082Z,57.49
2019-03-24T11:08:46.833Z,58.59
2019-03-24T11:11:52.512Z,57.71
2019-03-24T11:14:58.237Z,56.59
2019-03-24T11:18:03.945Z,55.14
2019-03-24T11:21:09.595Z,57.98
2019-03-24T11:24:15.357Z,56.89
2019-03-24T11:27:21.052Z,56.85
2019-03-24T11:30:26.724Z,58.48
2019-03-24T11:33:32.456Z,59.40
2019-03-24T11:36:38.123Z,56.49
2019-03-24T11:39:44.754Z,58.59
2019-03-24T11:42:50.358Z,58.92
2019-03-24T11:45:56.071Z,55.82
2019-03-24T11:49:01.771Z,53.88
2019-03-24T11:52:07.564Z,55.59
2019-03-24T11:55:13.367Z,55.90
2019-03-24T11:58:19.171Z,55.86
2019-03-24T12:01:24.912Z,55.49
2019-03-24T12:04:30.660Z,56.95
2019-03-24T12:07:36.423Z,53.11
2019-03-24T12:10:42.101Z,53.13
2019-03-24T12:13:47.818Z,53.42
2019-03-24T12:16:53.496Z,51.45
2019-03-24T12:19:59.197Z,52.14
2019-03-24T12:23:04.933Z,50.67
2019-03-24T12:26:10.572Z,52.69
2019-03-24T12:29:16.285Z,53.78
2019-03-24T12:32:22.010Z,53.62
2019-03-24T12:35:27.701Z,54.39
2019-03-24T12:38:33.486Z,54.10
2019-03-24T12:41:39.185Z,53.72
2019-03-24T12:44:44.854Z,53.98
2019-03-24T12:47:50.588Z,53.47
2019-03-24T12:50:56.294Z,52.93
2019-03-24T12:54:02.046Z,53.65
2019-03-24T12:57:07.743Z,55.41
2019-03-24T13:00:13.947Z,55.03
2019-03-24T13:03:19.775Z,54.82
2019-03-24T13:06:25.570Z,54.97
2019-03-24T13:09:33.598Z,55.42
2019-03-24T13:12:38.790Z,55.77
2019-03-24T13:15:44.543Z,55.60
2019-03-24T13:18:50.316Z,56.73
2019-03-24T13:21:55.985Z,55.25
2019-03-24T13:25:01.824Z,56.21
2019-03-24T13:28:07.561Z,56.00
2019-03-24T13:31:13.309Z,55.54
2019-03-24T13:34:18.982Z,55.68
2019-03-24T13:37:24.626Z,55.40
2019-03-24T13:40:30.357Z,57.10
2019-03-24T13:43:36.053Z,57.20
2019-03-24T13:46:41.852Z,58.46
2019-03-24T13:49:47.584Z,57.07
2019-03-24T13:52:53.322Z,56.41
2019-03-24T13:55:59.001Z,56.79
2019-03-24T13:59:04.733Z,56.60
2019-03-24T14:02:10.807Z,57.87
2019-03-24T14:05:16.832Z,58.30
2019-03-24T14:08:22.523Z,58.68
2019-03-24T14:11:28.218Z,57.78
2019-03-24T14:14:33.982Z,58.49
2019-03-24T14:17:39.660Z,59.25
2019-03-24T14:20:45.468Z,58.91
2019-03-24T14:23:51.105Z,58.70
2019-03-24T14:26:56.911Z,58.14
2019-03-24T14:30:02.643Z,58.65
2019-03-24T14:33:08.447Z,58.74
2019-03-24T14:36:14.143Z,57.46
2019-03-24T14:39:19.830Z,56.30
2019-03-24T14:42:25.548Z,56.42
2019-03-24T14:45:31.290Z,57.46
2019-03-24T14:48:37.151Z,56.53
2019-03-24T14:51:42.884Z,57.38
2019-03-24T14:54:48.628Z,56.98
2019-03-24T14:57:54.304Z,57.34
2019-03-24T15:00:59.991Z,57.42
2019-03-24T15:04:05.775Z,57.51
2019-03-24T15:07:11.487Z,57.16
2019-03-24T15:10:18.209Z,56.61
2019-03-24T15:13:23.820Z,57.43
2019-03-24T15:16:29.678Z,58.02
2019-03-24T15:19:35.399Z,57.58
2019-03-24T15:22:41.137Z,57.83
2019-03-24T15:25:46.988Z,58.00
2019-03-24T15:28:52.727Z,58.54
2019-03-24T15:31:58.518Z,58.16
2019-03-24T15:35:04.460Z,57.31
2019-03-24T15:38:10.367Z,57.28
2019-03-24T15:41:18.298Z,56.59
2019-03-24T15:44:23.805Z,56.11
2019-03-24T15:47:29.537Z,56.66
2019-03-24T15:50:35.340Z,56.71
2019-03-24T15:53:41.086Z,56.24
2019-03-24T15:56:46.891Z,55.88
2019-03-24T15:59:52.602Z,56.46
2019-03-24T16:02:58.433Z,56.41
2019-03-24T16:06:04.131Z,56.27
2019-03-24T16:09:09.983Z,55.17
2019-03-24T16:12:15.738Z,56.00
2019-03-24T16:15:21.394Z,55.02
2019-03-24T16:18:27.227Z,55.46
2019-03-24T16:21:33.935Z,54.70
2019-03-24T16:24:39.713Z,55.65
2019-03-24T16:27:45.423Z,55.65
2019-03-24T16:30:51.122Z,55.96
2019-03-24T16:33:56.781Z,56.77
2019-03-24T16:37:02.586Z,55.09
2019-03-24T16:40:08.513Z,55.52
2019-03-24T16:43:14.393Z,55.98
2019-03-24T16:46:20.203Z,56.77
2019-03-24T16:49:25.975Z,56.31
2019-03-24T16:52:31.806Z,56.62
2019-03-24T16:55:37.526Z,57.64
2019-03-24T16:58:43.205Z,56.58
2019-03-24T17:01:48.895Z,57.20
2019-03-24T17:04:54.657Z,56.97
2019-03-24T17:08:00.393Z,57.63
2019-03-24T17:11:06.178Z,57.78
2019-03-24T17:14:11.885Z,57.92
2019-03-24T17:17:17.668Z,58.18
2019-03-24T17:20:23.394Z,58.10
2019-03-24T17:23:29.173Z,58.71
2019-03-24T17:26:34.970Z,58.78
2019-03-24T17:29:40.802Z,57.85
2019-03-24T17:32:46.531Z,58.58
2019-03-24T17:35:52.237Z,59.37
2019-03-24T17:38:58.238Z,58.59
2019-03-24T17:42:04.069Z,58.81
2019-03-24T17:45:10.635Z,58.62
2019-03-24T17:48:16.429Z,59.78
2019-03-24T17:51:22.171Z,60.53
2019-03-24T17:54:27.978Z,60.13
2019-03-24T17:57:33.729Z,60.89
2019-03-24T18:00:45.950Z,61.43
2019-03-24T18:03:51.655Z,61.92
2019-03-24T18:06:57.440Z,61.60
2019-03-24T18:10:03.108Z,61.48
2019-03-24T18:13:08.839Z,61.83
2019-03-24T18:16:14.609Z,60.97
2019-03-24T18:19:20.431Z,62.05
2019-03-24T18:22:26.215Z,62.98
2019-03-24T18:25:31.956Z,64.59
2019-03-24T18:28:37.628Z,65.88
2019-03-24T18:31:43.421Z,64.57
2019-03-24T18:34:49.293Z,65.97
2019-03-24T18:37:55.095Z,63.62
2019-03-24T18:41:00.809Z,65.59
2019-03-24T18:44:06.659Z,65.42
2019-03-24T18:47:12.393Z,67.24
2019-03-24T18:50:18.150Z,67.99
2019-03-24T18:53:26.009Z,69.69
2019-03-24T18:56:31.396Z,69.91
2019-03-24T18:59:37.067Z,70.79
2019-03-24T19:02:42.769Z,72.11
2019-03-24T19:05:49.823Z,72.20
2019-03-24T19:08:55.609Z,72.08
2019-03-24T19:12:01.320Z,73.65
2019-03-24T19:15:08.007Z,73.85
2019-03-24T19:18:13.684Z,75.14
2019-03-24T19:21:19.782Z,75.21
2019-03-24T19:24:25.519Z,75.22
2019-03-24T19:27:31.266Z,75.69
2019-03-24T19:30:45.909Z,76.48
2019-03-24T19:33:51.666Z,77.17
2019-03-24T19:36:58.433Z,77.47
2019-03-24T19:40:04.266Z,78.08
2019-03-24T19:43:09.978Z,78.63
2019-03-24T19:46:15.724Z,79.18
2019-03-24T19:49:21.496Z,79.92
2019-03-24T19:52:27.277Z,80.28
2019-03-24T19:55:33.105Z,80.90
2019-03-24T19:58:38.882Z,81.82
2019-03-24T20:01:44.665Z,82.40
2019-03-24T20:04:51.480Z,82.24
2019-03-24T20:07:57.415Z,82.58
2019-03-24T20:11:03.075Z,83.19
2019-03-24T20:14:08.864Z,83.70
2019-03-24T20:17:14.548Z,83.77
2019-03-24T20:20:20.334Z,84.10
2019-03-24T20:23:26.053Z,84.42
2019-03-24T20:26:31.765Z,85.06
2019-03-24T20:29:37.489Z,85.67
2019-03-24T20:32:43.258Z,86.21
2019-03-24T20:35:50.010Z,86.51
2019-03-24T20:38:55.844Z,86.93
2019-03-24T20:42:01.594Z,87.34
2019-03-24T20:45:07.649Z,88.01
2019-03-24T20:48:13.463Z,88.27
2019-03-24T20:51:19.238Z,88.35
2019-03-24T20:54:25.110Z,88.13
2019-03-24T20:57:30.817Z,88.50
2019-03-24T21:00:37.293Z,89.20
2019-03-24T21:03:43.086Z,89.10
2019-03-24T21:06:48.807Z,88.97
2019-03-24T21:09:54.641Z,88.74
2019-03-24T21:13:00.539Z,89.50
2019-03-24T21:16:06.267Z,89.98
2019-03-24T21:19:12.102Z,90.45
2019-03-24T21:22:17.931Z,90.70
2019-03-24T21:25:23.671Z,91.22
2019-03-24T21:28:29.411Z,91.48
2019-03-24T21:31:35.145Z,91.38
2019-03-24T21:34:40.850Z,91.59
2019-03-24T21:37:46.599Z,92.14
2019-03-24T21:40:52.354Z,91.71
2019-03-24T21:43:58.034Z,91.59
2019-03-24T21:47:03.903Z,91.02
2019-03-24T21:50:09.897Z,89.72
2019-03-24T21:53:15.681Z,89.52
2019-03-24T21:56:21.384Z,83.34
2019-03-24T21:59:27.126Z,80.66
2019-03-24T22:02:32.910Z,78.18
2019-03-24T22:05:38.701Z,76.72
2019-03-24T22:08:44.502Z,77.18
2019-03-24T22:11:50.216Z,78.11
2019-03-24T22:14:55.920Z,79.06
2019-03-24T22:18:01.751Z,80.00
2019-03-24T22:21:08.696Z,78.99
2019-03-24T22:24:14.451Z,79.80
2019-03-24T22:27:20.173Z,79.54
2019-03-24T22:30:25.905Z,80.69
2019-03-24T22:33:31.611Z,81.47
2019-03-24T22:36:37.343Z,79.77
2019-03-24T22:39:43.048Z,76.53
2019-03-24T22:42:48.718Z,76.25
2019-03-24T22:45:54.411Z,78.29
2019-03-24T22:49:00.078Z,76.86
2019-03-24T22:52:07.438Z,78.08
2019-03-24T22:55:13.595Z,79.32
2019-03-24T22:58:19.324Z,78.93
2019-03-24T23:01:26.260Z,79.15
2019-03-24T23:04:32.102Z,74.08
2019-03-24T23:07:37.811Z,72.53
2019-03-24T23:10:43.420Z,72.96
2019-03-24T23:13:49.165Z,74.88
2019-03-24T23:16:54.874Z,73.77
2019-03-24T23:20:00.605Z,74.61
2019-03-24T23:23:06.435Z,72.18
2019-03-24T23:26:12.147Z,74.22
2019-03-24T23:29:17.931Z,73.97
2019-03-24T23:32:23.584Z,76.27
2019-03-24T23:35:29.370Z,76.91
2019-03-24T23:38:35.169Z,76.68
2019-03-24T23:41:40.982Z,77.69
2019-03-24T23:44:46.717Z,77.77
2019-03-24T23:47:52.357Z,78.35
2019-03-24T23:50:58.021Z,79.23
2019-03-24T23:54:03.733Z,80.14
2019-03-24T23:57:09.372Z,80.09
